createdAt,value
2019-05-21T00:00:15.965Z,0.00
2019-05-21T00:02:10.384Z,0.00
2019-05-21T00:03:10.398Z,0.00
2019-05-21T00:05:03.843Z,0.00
2019-05-21T00:06:03.839Z,0.00
2019-05-21T00:07:57.223Z,0.00
2019-05-21T00:08:57.262Z,0.00
2019-05-21T00:10:50.666Z,0.00
2019-05-21T00:11:50.673Z,0.00
2019-05-21T00:13:44.091Z,0.00
2019-05-21T00:14:44.091Z,0.00
2019-05-21T00:16:37.507Z,0.00
2019-05-21T00:17:37.515Z,0.00
2019-05-21T00:19:30.957Z,0.00
2019-05-21T00:20:30.945Z,0.00
2019-05-21T00:22:24.390Z,0.00
2019-05-21T00:23:24.365Z,0.00
2019-05-21T00:25:18.810Z,0.00
2019-05-21T00:26:18.804Z,0.00
2019-05-21T00:28:12.252Z,0.00
2019-05-21T00:29:12.215Z,0.00
2019-05-21T00:31:06.651Z,0.00
2019-05-21T00:32:06.644Z,0.00
2019-05-21T00:34:00.071Z,0.00
2019-05-21T00:35:00.076Z,0.00
2019-05-21T00:36:53.799Z,0.00
2019-05-21T00:37:53.483Z,0.00
2019-05-21T00:39:46.918Z,0.00
2019-05-21T00:40:46.913Z,0.00
2019-05-21T00:42:40.331Z,0.00
2019-05-21T00:43:40.338Z,0.00
2019-05-21T00:45:33.763Z,0.00
2019-05-21T00:46:33.808Z,0.00
2019-05-21T00:48:27.205Z,0.00
2019-05-21T00:49:27.243Z,0.00
2019-05-21T00:51:20.620Z,0.00
2019-05-21T00:52:20.638Z,0.00
2019-05-21T00:54:14.032Z,0.00
2019-05-21T00:55:14.048Z,0.00
2019-05-21T00:57:07.447Z,0.00
2019-05-21T00:58:07.476Z,0.00
2019-05-21T01:00:00.964Z,0.00
2019-05-21T01:01:00.893Z,0.00
2019-05-21T01:02:54.345Z,0.00
2019-05-21T01:03:54.362Z,0.00
2019-05-21T01:05:47.750Z,0.00
2019-05-21T01:06:47.752Z,0.00
2019-05-21T01:08:41.174Z,0.00
2019-05-21T01:09:41.193Z,0.00
2019-05-21T01:11:35.604Z,0.00
2019-05-21T01:12:35.610Z,0.00
2019-05-21T01:14:29.012Z,0.00
2019-05-21T01:15:29.008Z,0.00
2019-05-21T01:17:30.122Z,0.00
2019-05-21T01:18:30.057Z,0.00
2019-05-21T01:20:15.905Z,0.00
2019-05-21T01:21:15.876Z,0.00
2019-05-21T01:23:09.279Z,0.00
2019-05-21T01:24:09.301Z,0.00
2019-05-21T01:26:02.709Z,0.00
2019-05-21T01:27:02.717Z,0.00
2019-05-21T01:28:57.141Z,0.00
2019-05-21T01:29:57.141Z,0.00
2019-05-21T01:31:50.565Z,0.00
2019-05-21T01:32:50.566Z,0.00
2019-05-21T01:34:43.979Z,0.00
2019-05-21T01:35:43.988Z,0.00
2019-05-21T01:37:37.409Z,0.00
2019-05-21T01:38:37.442Z,0.00
2019-05-21T01:40:30.853Z,0.00
2019-05-21T01:41:30.848Z,0.00
2019-05-21T01:43:24.285Z,0.00
2019-05-21T01:44:24.279Z,0.00
2019-05-21T01:46:17.680Z,0.00
2019-05-21T01:47:17.683Z,0.00
2019-05-21T01:49:11.100Z,0.00
2019-05-21T01:50:11.118Z,0.00
2019-05-21T01:52:04.517Z,0.00
2019-05-21T01:53:04.535Z,0.00
2019-05-21T01:54:57.458Z,0.00
2019-05-21T01:55:57.457Z,0.00
2019-05-21T01:57:50.879Z,0.00
2019-05-21T01:58:50.881Z,0.00
2019-05-21T02:00:44.289Z,0.00
2019-05-21T02:01:44.337Z,0.00
2019-05-21T02:03:37.713Z,0.00
2019-05-21T02:04:37.719Z,0.00
2019-05-21T02:06:30.678Z,0.00
2019-05-21T02:07:30.983Z,0.00
2019-05-21T02:09:23.555Z,0.00
2019-05-21T02:10:23.563Z,0.00
2019-05-21T02:12:16.471Z,0.00
2019-05-21T02:13:16.483Z,0.00
2019-05-21T02:15:09.397Z,0.00
2019-05-21T02:16:09.461Z,0.00
2019-05-21T02:18:02.822Z,0.00
2019-05-21T02:19:02.821Z,0.00
2019-05-21T02:20:55.735Z,0.00
2019-05-21T02:21:55.743Z,0.00
2019-05-21T02:23:49.165Z,0.00
2019-05-21T02:24:49.172Z,0.00
2019-05-21T02:26:42.084Z,0.00
2019-05-21T02:27:42.113Z,0.00
2019-05-21T02:29:35.508Z,0.00
2019-05-21T02:30:35.513Z,0.00
2019-05-21T02:32:28.924Z,0.00
2019-05-21T02:33:28.993Z,0.00
2019-05-21T02:35:21.856Z,0.00
2019-05-21T02:36:21.863Z,0.00
2019-05-21T02:38:14.777Z,0.00
2019-05-21T02:39:14.781Z,0.00
2019-05-21T02:41:07.691Z,0.00
2019-05-21T02:42:07.751Z,0.00
2019-05-21T02:44:00.622Z,0.00
2019-05-21T02:45:00.623Z,0.00
2019-05-21T02:46:53.540Z,0.00
2019-05-21T02:47:53.550Z,0.00
2019-05-21T02:49:46.470Z,0.00
2019-05-21T02:50:46.475Z,0.00
2019-05-21T02:52:39.888Z,0.00
2019-05-21T02:53:39.908Z,0.00
2019-05-21T02:55:33.320Z,0.00
2019-05-21T02:56:33.326Z,0.00
2019-05-21T02:58:26.242Z,0.00
2019-05-21T02:59:26.245Z,0.00
2019-05-21T03:01:19.667Z,0.00
2019-05-21T03:02:19.666Z,0.00
2019-05-21T03:04:13.079Z,0.00
2019-05-21T03:05:13.082Z,0.00
2019-05-21T03:07:06.490Z,4.00
2019-05-21T03:08:06.507Z,4.00
2019-05-21T03:09:59.914Z,4.00
2019-05-21T03:10:59.920Z,4.00
2019-05-21T03:12:52.842Z,8.00
2019-05-21T03:13:52.845Z,4.00
2019-05-21T03:15:46.252Z,8.00
2019-05-21T03:16:46.259Z,4.00
2019-05-21T03:18:39.671Z,8.00
2019-05-21T03:19:39.676Z,8.00
2019-05-21T03:21:33.081Z,12.00
2019-05-21T03:22:33.099Z,12.00
2019-05-21T03:24:26.506Z,12.00
2019-05-21T03:25:26.520Z,12.00
2019-05-21T03:27:19.420Z,16.00
2019-05-21T03:28:19.430Z,16.00
2019-05-21T03:30:12.844Z,20.00
2019-05-21T03:31:12.850Z,20.00
2019-05-21T03:33:06.255Z,24.00
2019-05-21T03:34:06.268Z,24.00
2019-05-21T03:35:59.678Z,24.00
2019-05-21T03:36:59.690Z,28.00
2019-05-21T03:38:52.602Z,32.00
2019-05-21T03:39:52.604Z,40.00
2019-05-21T03:41:45.513Z,40.00
2019-05-21T03:42:45.523Z,44.00
2019-05-21T03:44:49.333Z,36.00
2019-05-21T03:45:38.942Z,28.00
2019-05-21T03:47:32.347Z,36.00
2019-05-21T03:48:32.363Z,40.00
2019-05-21T03:50:25.773Z,44.00
2019-05-21T03:51:25.776Z,60.00
2019-05-21T03:53:19.173Z,64.00
2019-05-21T03:54:19.193Z,88.00
2019-05-21T03:56:12.181Z,68.00
2019-05-21T03:57:12.114Z,76.00
2019-05-21T03:59:05.049Z,116.00
2019-05-21T04:00:05.035Z,144.00
2019-05-21T04:01:58.436Z,156.00
2019-05-21T04:02:58.450Z,184.00
2019-05-21T04:04:51.864Z,244.00
2019-05-21T04:05:51.884Z,224.00
2019-05-21T04:07:44.778Z,260.00
2019-05-21T04:08:44.789Z,236.00
2019-05-21T04:10:37.715Z,296.00
2019-05-21T04:11:37.710Z,300.00
2019-05-21T04:13:30.628Z,332.00
2019-05-21T04:14:30.638Z,336.00
2019-05-21T04:16:23.542Z,280.00
2019-05-21T04:17:23.551Z,328.00
2019-05-21T04:19:16.965Z,276.00
2019-05-21T04:20:16.970Z,292.00
2019-05-21T04:22:09.897Z,332.00
2019-05-21T04:23:09.893Z,424.00
2019-05-21T04:25:02.802Z,444.00
2019-05-21T04:26:02.811Z,460.00
2019-05-21T04:27:56.271Z,592.00
2019-05-21T04:28:56.226Z,616.00
2019-05-21T04:30:49.146Z,712.00
2019-05-21T04:31:49.144Z,748.00
2019-05-21T04:33:42.554Z,680.00
2019-05-21T04:34:42.561Z,768.00
2019-05-21T04:36:35.963Z,516.00
2019-05-21T04:37:35.976Z,360.00
2019-05-21T04:39:29.387Z,380.00
2019-05-21T04:40:29.395Z,368.00
2019-05-21T04:42:22.800Z,372.00
2019-05-21T04:43:22.812Z,448.00
2019-05-21T04:45:15.733Z,424.00
2019-05-21T04:46:15.737Z,472.00
2019-05-21T04:48:09.141Z,576.00
2019-05-21T04:49:09.151Z,716.00
2019-05-21T04:51:02.567Z,772.00
2019-05-21T04:52:02.572Z,844.00
2019-05-21T04:53:56.022Z,828.00
2019-05-21T04:54:55.988Z,872.00
2019-05-21T04:56:49.388Z,884.00
2019-05-21T04:57:49.402Z,1020.00
2019-05-21T04:59:42.816Z,1188.00
2019-05-21T05:00:42.824Z,1160.00
2019-05-21T05:02:36.228Z,1176.00
2019-05-21T05:03:36.240Z,1056.00
2019-05-21T05:05:29.670Z,960.00
2019-05-21T05:06:29.666Z,832.00
2019-05-21T05:08:22.578Z,864.00
2019-05-21T05:09:22.588Z,812.00
2019-05-21T05:11:16.002Z,708.00
2019-05-21T05:12:16.021Z,652.00
2019-05-21T05:14:09.428Z,672.00
2019-05-21T05:15:09.434Z,824.00
2019-05-21T05:17:02.349Z,836.00
2019-05-21T05:18:02.374Z,872.00
2019-05-21T05:19:55.774Z,948.00
2019-05-21T05:20:55.779Z,1032.00
2019-05-21T05:22:49.190Z,1004.00
2019-05-21T05:23:49.200Z,1132.00
2019-05-21T05:25:42.618Z,1200.00
2019-05-21T05:26:42.624Z,1204.00
2019-05-21T05:28:36.027Z,1364.00
2019-05-21T05:29:36.041Z,1488.00
2019-05-21T05:31:29.452Z,1324.00
2019-05-21T05:32:29.459Z,1380.00
2019-05-21T05:34:22.887Z,1376.00
2019-05-21T05:35:22.885Z,1616.00
2019-05-21T05:37:15.798Z,1672.00
2019-05-21T05:38:15.808Z,1876.00
2019-05-21T05:40:09.261Z,1604.00
2019-05-21T05:41:09.230Z,1912.00
2019-05-21T05:43:02.644Z,2596.00
2019-05-21T05:44:02.650Z,2776.00
2019-05-21T05:45:56.060Z,3372.00
2019-05-21T05:46:56.069Z,4028.00
2019-05-21T05:48:49.476Z,5372.00
2019-05-21T05:49:49.488Z,5716.00
2019-05-21T05:51:42.905Z,5168.00
2019-05-21T05:52:42.918Z,4544.00
2019-05-21T05:54:36.330Z,4772.00
2019-05-21T05:55:36.336Z,4376.00
2019-05-21T05:57:29.748Z,4512.00
2019-05-21T05:58:29.761Z,4804.00
2019-05-21T06:00:30.801Z,3804.00
2019-05-21T06:01:23.184Z,3264.00
2019-05-21T06:03:16.591Z,2652.00
2019-05-21T06:04:16.603Z,2828.00
2019-05-21T06:06:10.021Z,3824.00
2019-05-21T06:07:10.026Z,4192.00
2019-05-21T06:09:03.441Z,2964.00
2019-05-21T06:10:03.454Z,3024.00
2019-05-21T06:11:56.876Z,3452.00
2019-05-21T06:12:56.915Z,3424.00
2019-05-21T06:14:50.301Z,4292.00
2019-05-21T06:15:50.316Z,4432.00
2019-05-21T06:17:43.733Z,3888.00
2019-05-21T06:18:43.735Z,3976.00
2019-05-21T06:20:37.160Z,3552.00
2019-05-21T06:21:37.159Z,3156.00
2019-05-21T06:23:30.571Z,4128.00
2019-05-21T06:24:30.585Z,4428.00
2019-05-21T06:26:23.995Z,6968.00
2019-05-21T06:27:24.006Z,5904.00
2019-05-21T06:29:17.415Z,5960.00
2019-05-21T06:30:17.430Z,6440.00
2019-05-21T06:32:10.918Z,6440.00
2019-05-21T06:33:10.853Z,5392.00
2019-05-21T06:35:04.274Z,5368.00
2019-05-21T06:36:04.277Z,5960.00
2019-05-21T06:37:57.688Z,3048.00
2019-05-21T06:38:57.703Z,3536.00
2019-05-21T06:40:51.116Z,4692.00
2019-05-21T06:41:51.126Z,4656.00
2019-05-21T06:43:44.551Z,4240.00
2019-05-21T06:44:44.551Z,3664.00
2019-05-21T06:46:37.966Z,3368.00
2019-05-21T06:47:37.978Z,3696.00
2019-05-21T06:49:31.391Z,3516.00
2019-05-21T06:50:31.396Z,3460.00
2019-05-21T06:52:24.811Z,3316.00
2019-05-21T06:53:24.819Z,2724.00
2019-05-21T06:55:18.384Z,3392.00
2019-05-21T06:56:18.248Z,4972.00
2019-05-21T06:58:11.657Z,4080.00
2019-05-21T06:59:11.670Z,4064.00
2019-05-21T07:01:05.086Z,4712.00
2019-05-21T07:02:05.107Z,4912.00
2019-05-21T07:03:58.551Z,5372.00
2019-05-21T07:04:58.538Z,6464.00
2019-05-21T07:06:51.932Z,6744.00
2019-05-21T07:07:51.937Z,5004.00
2019-05-21T07:09:45.359Z,3484.00
2019-05-21T07:10:45.407Z,4212.00
2019-05-21T07:12:38.797Z,4432.00
2019-05-21T07:13:38.802Z,5060.00
2019-05-21T07:15:32.236Z,4632.00
2019-05-21T07:16:32.250Z,4400.00
2019-05-21T07:18:25.797Z,4120.00
2019-05-21T07:19:25.672Z,4396.00
2019-05-21T07:21:19.151Z,3988.00
2019-05-21T07:22:19.114Z,5104.00
2019-05-21T07:24:12.527Z,4772.00
2019-05-21T07:25:12.542Z,4808.00
2019-05-21T07:27:05.962Z,5060.00
2019-05-21T07:28:05.966Z,4872.00
2019-05-21T07:29:59.406Z,5384.00
2019-05-21T07:30:59.388Z,5040.00
2019-05-21T07:32:53.024Z,5664.00
2019-05-21T07:33:52.816Z,5700.00
2019-05-21T07:35:46.238Z,7172.00
2019-05-21T07:36:46.237Z,7468.00
2019-05-21T07:38:52.659Z,8112.00
2019-05-21T07:39:39.662Z,6252.00
2019-05-21T07:41:33.083Z,5736.00
2019-05-21T07:42:33.091Z,5744.00
2019-05-21T07:44:26.499Z,4508.00
2019-05-21T07:45:26.510Z,4704.00
2019-05-21T07:47:19.927Z,3752.00
2019-05-21T07:48:20.025Z,3612.00
2019-05-21T07:50:13.621Z,3252.00
2019-05-21T07:51:13.365Z,3492.00
2019-05-21T07:53:06.777Z,4524.00
2019-05-21T07:54:06.796Z,4404.00
2019-05-21T07:56:00.423Z,3028.00
2019-05-21T07:57:00.231Z,3320.00
2019-05-21T07:58:53.681Z,4164.00
2019-05-21T07:59:53.664Z,3696.00
2019-05-21T08:01:47.091Z,3988.00
2019-05-21T08:02:47.129Z,5004.00
2019-05-21T08:04:40.510Z,4152.00
2019-05-21T08:05:40.509Z,4016.00
2019-05-21T08:07:33.925Z,4184.00
2019-05-21T08:08:33.941Z,3760.00
2019-05-21T08:10:27.361Z,3896.00
2019-05-21T08:11:27.358Z,3492.00
2019-05-21T08:13:20.773Z,3704.00
2019-05-21T08:14:20.784Z,3512.00
2019-05-21T08:16:14.212Z,2816.00
2019-05-21T08:17:14.209Z,3156.00
2019-05-21T08:19:07.619Z,4080.00
2019-05-21T08:20:09.874Z,3836.00
2019-05-21T08:22:00.556Z,3672.00
2019-05-21T08:23:00.560Z,3924.00
2019-05-21T08:24:53.986Z,3944.00
2019-05-21T08:25:53.987Z,3112.00
2019-05-21T08:27:47.416Z,3144.00
2019-05-21T08:28:47.416Z,3564.00
2019-05-21T08:30:40.839Z,2860.00
2019-05-21T08:31:40.834Z,3104.00
2019-05-21T08:33:34.251Z,4164.00
2019-05-21T08:34:34.258Z,4388.00
2019-05-21T08:36:27.683Z,3756.00
2019-05-21T08:37:27.679Z,3832.00
2019-05-21T08:39:28.849Z,3872.00
2019-05-21T08:40:21.109Z,4064.00
2019-05-21T08:42:14.524Z,4196.00
2019-05-21T08:43:14.530Z,5208.00
2019-05-21T08:45:07.960Z,4000.00
2019-05-21T08:46:07.982Z,4140.00
2019-05-21T08:48:01.385Z,4484.00
2019-05-21T08:49:01.387Z,4268.00
2019-05-21T08:50:54.811Z,3544.00
2019-05-21T08:51:54.812Z,3336.00
2019-05-21T08:53:48.231Z,3756.00
2019-05-21T08:54:48.237Z,3776.00
2019-05-21T08:56:41.673Z,4004.00
2019-05-21T08:57:41.664Z,4016.00
2019-05-21T08:59:35.086Z,3328.00
2019-05-21T09:00:35.101Z,3628.00
2019-05-21T09:02:28.517Z,4488.00
2019-05-21T09:03:28.514Z,4520.00
2019-05-21T09:05:21.927Z,4204.00
2019-05-21T09:06:21.951Z,4220.00
2019-05-21T09:08:15.375Z,4180.00
2019-05-21T09:09:15.362Z,4232.00
2019-05-21T09:11:08.784Z,4780.00
2019-05-21T09:12:08.791Z,4532.00
2019-05-21T09:14:02.232Z,3732.00
2019-05-21T09:15:02.221Z,3184.00
2019-05-21T09:16:55.636Z,3392.00
2019-05-21T09:17:55.645Z,3480.00
2019-05-21T09:19:49.092Z,3620.00
2019-05-21T09:20:49.072Z,3848.00
2019-05-21T09:22:42.501Z,3692.00
2019-05-21T09:23:42.522Z,3552.00
2019-05-21T09:25:35.903Z,3748.00
2019-05-21T09:26:35.918Z,3796.00
2019-05-21T09:28:29.335Z,4284.00
2019-05-21T09:29:29.343Z,4484.00
2019-05-21T09:31:22.763Z,4548.00
2019-05-21T09:32:22.768Z,4452.00
2019-05-21T09:34:16.185Z,3736.00
2019-05-21T09:35:16.197Z,3928.00
2019-05-21T09:37:19.320Z,3868.00
2019-05-21T09:38:09.619Z,4620.00
2019-05-21T09:40:03.049Z,4840.00
2019-05-21T09:41:03.055Z,4092.00
2019-05-21T09:42:56.469Z,3556.00
2019-05-21T09:43:56.470Z,3940.00
2019-05-21T09:45:49.884Z,3460.00
2019-05-21T09:46:49.905Z,3392.00
2019-05-21T09:48:43.312Z,3140.00
2019-05-21T09:49:43.322Z,3100.00
2019-05-21T09:51:36.744Z,3472.00
2019-05-21T09:52:36.745Z,3504.00
2019-05-21T09:54:30.158Z,2996.00
2019-05-21T09:55:33.458Z,3232.00
2019-05-21T09:57:23.597Z,2796.00
2019-05-21T09:58:23.604Z,2352.00
2019-05-21T10:00:18.143Z,2932.00
2019-05-21T10:01:18.039Z,2948.00
2019-05-21T10:03:11.453Z,2972.00
2019-05-21T10:04:11.465Z,2748.00
2019-05-21T10:06:04.887Z,2960.00
2019-05-21T10:07:04.896Z,3080.00
2019-05-21T10:08:58.307Z,2508.00
2019-05-21T10:09:58.319Z,3040.00
2019-05-21T10:11:51.738Z,2992.00
2019-05-21T10:12:51.744Z,3032.00
2019-05-21T10:14:45.175Z,3468.00
2019-05-21T10:15:45.933Z,3452.00
2019-05-21T10:17:38.650Z,2944.00
2019-05-21T10:18:38.610Z,3092.00
2019-05-21T10:20:32.034Z,3456.00
2019-05-21T10:21:32.039Z,2848.00
2019-05-21T10:23:26.463Z,2624.00
2019-05-21T10:24:26.476Z,2664.00
2019-05-21T10:26:20.895Z,2600.00
2019-05-21T10:27:20.927Z,2468.00
2019-05-21T10:29:14.351Z,2756.00
2019-05-21T10:30:14.343Z,2728.00
2019-05-21T10:32:07.808Z,2916.00
2019-05-21T10:33:07.777Z,2512.00
2019-05-21T10:35:01.272Z,2664.00
2019-05-21T10:36:01.194Z,2356.00
2019-05-21T10:37:55.718Z,2056.00
2019-05-21T10:38:55.667Z,1928.00
2019-05-21T10:40:49.063Z,1904.00
2019-05-21T10:41:49.135Z,1892.00
2019-05-21T10:43:42.489Z,2040.00
2019-05-21T10:44:42.498Z,2124.00
2019-05-21T10:46:35.918Z,2056.00
2019-05-21T10:47:35.955Z,1920.00
2019-05-21T10:49:29.334Z,1700.00
2019-05-21T10:50:29.347Z,1748.00
2019-05-21T10:52:22.792Z,1544.00
2019-05-21T10:53:22.783Z,1740.00
2019-05-21T10:55:17.653Z,1736.00
2019-05-21T10:56:16.202Z,1912.00
2019-05-21T10:58:09.724Z,1876.00
2019-05-21T10:59:09.659Z,1888.00
2019-05-21T11:01:03.068Z,1972.00
2019-05-21T11:02:03.079Z,1896.00
2019-05-21T11:03:57.486Z,2008.00
2019-05-21T11:04:57.509Z,2052.00
2019-05-21T11:06:50.905Z,2112.00
2019-05-21T11:07:50.912Z,2088.00
2019-05-21T11:09:44.324Z,1924.00
2019-05-21T11:10:44.336Z,1904.00
2019-05-21T11:12:37.749Z,2024.00
2019-05-21T11:13:37.771Z,2048.00
2019-05-21T11:15:31.169Z,1916.00
2019-05-21T11:16:31.177Z,1928.00
2019-05-21T11:18:24.592Z,2056.00
2019-05-21T11:19:24.613Z,2188.00
2019-05-21T11:21:18.002Z,2532.00
2019-05-21T11:22:18.017Z,2648.00
2019-05-21T11:24:11.502Z,2960.00
2019-05-21T11:25:11.439Z,2868.00
2019-05-21T11:27:05.022Z,2884.00
2019-05-21T11:28:06.210Z,2484.00
2019-05-21T11:29:58.266Z,2704.00
2019-05-21T11:30:58.279Z,3060.00
2019-05-21T11:32:51.701Z,2520.00
2019-05-21T11:33:51.702Z,2508.00
2019-05-21T11:35:45.110Z,2852.00
2019-05-21T11:36:45.124Z,2888.00
2019-05-21T11:38:40.282Z,2924.00
2019-05-21T11:39:38.554Z,2764.00
2019-05-21T11:41:31.953Z,3380.00
2019-05-21T11:42:31.970Z,2984.00
2019-05-21T11:44:25.401Z,3292.00
2019-05-21T11:45:32.095Z,2996.00
2019-05-21T11:47:18.798Z,2272.00
2019-05-21T11:48:18.806Z,2224.00
2019-05-21T11:50:12.217Z,2272.00
2019-05-21T11:51:12.934Z,2588.00
2019-05-21T11:53:05.708Z,2196.00
2019-05-21T11:54:05.650Z,2204.00
2019-05-21T11:55:59.103Z,2492.00
2019-05-21T11:56:59.089Z,2592.00
2019-05-21T11:58:52.486Z,2408.00
2019-05-21T11:59:52.496Z,2392.00
2019-05-21T12:01:45.896Z,2444.00
2019-05-21T12:02:45.906Z,2312.00
2019-05-21T12:04:39.334Z,3068.00
2019-05-21T12:05:39.329Z,3208.00
2019-05-21T12:07:32.740Z,2968.00
2019-05-21T12:08:32.751Z,3048.00
2019-05-21T12:10:26.277Z,3036.00
2019-05-21T12:11:26.167Z,3212.00
2019-05-21T12:13:20.602Z,3016.00
2019-05-21T12:14:19.590Z,3076.00
2019-05-21T12:16:12.495Z,4020.00
2019-05-21T12:17:12.510Z,3440.00
2019-05-21T12:19:08.324Z,3316.00
2019-05-21T12:20:05.924Z,2812.00
2019-05-21T12:21:58.839Z,2836.00
2019-05-21T12:22:58.852Z,3628.00
2019-05-21T12:24:52.271Z,3256.00
2019-05-21T12:25:52.278Z,3616.00
2019-05-21T12:27:45.729Z,4244.00
2019-05-21T12:28:45.696Z,4292.00
2019-05-21T12:30:39.098Z,3764.00
2019-05-21T12:31:39.118Z,3288.00
2019-05-21T12:33:35.055Z,4208.00
2019-05-21T12:34:32.035Z,4268.00
2019-05-21T12:36:25.452Z,4044.00
2019-05-21T12:37:25.460Z,4780.00
2019-05-21T12:39:18.375Z,3924.00
2019-05-21T12:40:18.384Z,3508.00
2019-05-21T12:42:11.815Z,3996.00
2019-05-21T12:43:11.802Z,4120.00
2019-05-21T12:45:05.222Z,3328.00
2019-05-21T12:46:05.222Z,3312.00
2019-05-21T12:47:58.150Z,3532.00
2019-05-21T12:48:58.149Z,4812.00
2019-05-21T12:50:51.059Z,3608.00
2019-05-21T12:51:51.070Z,3848.00
2019-05-21T12:53:43.987Z,3596.00
2019-05-21T12:54:43.994Z,3780.00
2019-05-21T12:56:40.607Z,4352.00
2019-05-21T12:57:37.416Z,5260.00
2019-05-21T12:59:30.844Z,6824.00
2019-05-21T13:00:30.833Z,7320.00
2019-05-21T13:02:24.246Z,6740.00
2019-05-21T13:03:24.253Z,7112.00
2019-05-21T13:05:17.664Z,6840.00
2019-05-21T13:06:17.674Z,6252.00
2019-05-21T13:08:11.089Z,7220.00
2019-05-21T13:09:11.154Z,6664.00
2019-05-21T13:11:04.511Z,6192.00
2019-05-21T13:12:04.528Z,5880.00
2019-05-21T13:13:57.943Z,6384.00
2019-05-21T13:14:57.953Z,5368.00
2019-05-21T13:16:51.684Z,6828.00
2019-05-21T13:17:51.572Z,6620.00
2019-05-21T13:19:44.997Z,5748.00
2019-05-21T13:20:44.993Z,5700.00
2019-05-21T13:22:38.407Z,5568.00
2019-05-21T13:23:38.417Z,5824.00
2019-05-21T13:25:31.829Z,6788.00
2019-05-21T13:26:31.840Z,7404.00
2019-05-21T13:28:25.264Z,8952.00
2019-05-21T13:29:25.262Z,6740.00
2019-05-21T13:31:18.182Z,7080.00
2019-05-21T13:32:18.189Z,7336.00
2019-05-21T13:34:11.604Z,10856.00
2019-05-21T13:35:11.615Z,10984.00
2019-05-21T13:37:05.031Z,10668.00
2019-05-21T13:38:05.048Z,11304.00
2019-05-21T13:39:58.494Z,12880.00
2019-05-21T13:40:58.470Z,12320.00
2019-05-21T13:42:51.884Z,11892.00
2019-05-21T13:43:51.983Z,12056.00
2019-05-21T13:45:44.808Z,13516.00
2019-05-21T13:46:44.824Z,13848.00
2019-05-21T13:48:38.245Z,14280.00
2019-05-21T13:49:38.257Z,14364.00
2019-05-21T13:51:31.214Z,14116.00
2019-05-21T13:52:31.223Z,13576.00
2019-05-21T13:54:24.602Z,11580.00
2019-05-21T13:55:24.616Z,9736.00
2019-05-21T13:57:18.027Z,10820.00
2019-05-21T13:58:18.040Z,10640.00
2019-05-21T14:00:11.462Z,10048.00
2019-05-21T14:01:15.587Z,8424.00
2019-05-21T14:03:04.891Z,7856.00
2019-05-21T14:04:04.899Z,8920.00
2019-05-21T14:05:57.815Z,8804.00
2019-05-21T14:06:57.829Z,8552.00
2019-05-21T14:08:51.248Z,7372.00
2019-05-21T14:10:12.538Z,8008.00
2019-05-21T14:11:45.693Z,7504.00
2019-05-21T14:12:45.689Z,7232.00
2019-05-21T14:14:39.213Z,6868.00
2019-05-21T14:15:39.118Z,6932.00
2019-05-21T14:17:32.531Z,7008.00
2019-05-21T14:18:32.542Z,6668.00
2019-05-21T14:20:25.958Z,6436.00
2019-05-21T14:21:25.968Z,6272.00
2019-05-21T14:23:19.392Z,6576.00
2019-05-21T14:24:19.400Z,6288.00
2019-05-21T14:26:12.956Z,5268.00
2019-05-21T14:27:12.819Z,5728.00
2019-05-21T14:29:06.235Z,5864.00
2019-05-21T14:30:06.246Z,6580.00
2019-05-21T14:31:59.163Z,6992.00
2019-05-21T14:32:59.188Z,7196.00
2019-05-21T14:35:01.391Z,7788.00
2019-05-21T14:35:52.609Z,8392.00
2019-05-21T14:37:46.017Z,9060.00
2019-05-21T14:38:46.033Z,9360.00
2019-05-21T14:40:40.463Z,9848.00
2019-05-21T14:41:40.470Z,9540.00
2019-05-21T14:43:33.899Z,9408.00
2019-05-21T14:44:33.902Z,8964.00
2019-05-21T14:46:27.308Z,9496.00
2019-05-21T14:47:27.327Z,8928.00
2019-05-21T14:49:20.742Z,9132.00
2019-05-21T14:50:20.756Z,9944.00
2019-05-21T14:52:14.166Z,10660.00
2019-05-21T14:53:14.181Z,10596.00
2019-05-21T14:55:07.610Z,10536.00
2019-05-21T14:56:07.613Z,10580.00
2019-05-21T14:58:01.022Z,10484.00
2019-05-21T14:59:01.045Z,10332.00
2019-05-21T15:00:54.014Z,10052.00
2019-05-21T15:01:53.968Z,10036.00
2019-05-21T15:03:47.495Z,10372.00
2019-05-21T15:04:47.703Z,10388.00
2019-05-21T15:06:40.804Z,10088.00
2019-05-21T15:07:40.822Z,9336.00
2019-05-21T15:09:34.251Z,8288.00
2019-05-21T15:10:47.419Z,7904.00
2019-05-21T15:12:27.662Z,7712.00
2019-05-21T15:13:27.675Z,7916.00
2019-05-21T15:15:20.604Z,7136.00
2019-05-21T15:16:20.616Z,7172.00
2019-05-21T15:18:20.912Z,7752.00
2019-05-21T15:19:14.042Z,7640.00
2019-05-21T15:21:06.975Z,6268.00
2019-05-21T15:22:06.978Z,6396.00
2019-05-21T15:23:59.946Z,4764.00
2019-05-21T15:24:59.970Z,4484.00
2019-05-21T15:26:53.325Z,6964.00
2019-05-21T15:27:53.336Z,8552.00
2019-05-21T15:29:46.749Z,9172.00
2019-05-21T15:30:46.763Z,9200.00
2019-05-21T15:32:39.675Z,7484.00
2019-05-21T15:33:39.690Z,6944.00
2019-05-21T15:35:32.609Z,7880.00
2019-05-21T15:36:32.621Z,7636.00
2019-05-21T15:38:26.049Z,6644.00
2019-05-21T15:39:26.065Z,6340.00
2019-05-21T15:41:18.991Z,7416.00
2019-05-21T15:42:19.002Z,8556.00
2019-05-21T15:44:11.924Z,8196.00
2019-05-21T15:45:11.947Z,6468.00
2019-05-21T15:47:04.860Z,4596.00
2019-05-21T15:48:04.863Z,4076.00
2019-05-21T15:49:57.785Z,6180.00
2019-05-21T15:50:57.802Z,6728.00
2019-05-21T15:52:50.716Z,8496.00
2019-05-21T15:53:50.739Z,8456.00
2019-05-21T15:55:43.648Z,7100.00
2019-05-21T15:56:43.658Z,5800.00
2019-05-21T15:58:36.580Z,5824.00
2019-05-21T15:59:36.595Z,5492.00
2019-05-21T16:01:29.515Z,5128.00
2019-05-21T16:02:29.520Z,5616.00
2019-05-21T16:04:22.441Z,6000.00
2019-05-21T16:05:22.450Z,5532.00
2019-05-21T16:07:15.371Z,4464.00
2019-05-21T16:08:15.392Z,4712.00
2019-05-21T16:10:08.311Z,4132.00
2019-05-21T16:11:08.317Z,4416.00
2019-05-21T16:13:01.233Z,3880.00
2019-05-21T16:14:01.246Z,3184.00
2019-05-21T16:15:54.252Z,4528.00
2019-05-21T16:16:54.315Z,4772.00
2019-05-21T16:18:47.182Z,5500.00
2019-05-21T16:19:47.204Z,6300.00
2019-05-21T16:21:40.606Z,6044.00
2019-05-21T16:22:40.628Z,5512.00
2019-05-21T16:24:33.583Z,5712.00
2019-05-21T16:25:33.569Z,5592.00
2019-05-21T16:27:26.491Z,4804.00
2019-05-21T16:28:26.495Z,4616.00
2019-05-21T16:30:19.418Z,4748.00
2019-05-21T16:31:19.428Z,4608.00
2019-05-21T16:33:12.832Z,5260.00
2019-05-21T16:34:12.854Z,5436.00
2019-05-21T16:36:07.330Z,5348.00
2019-05-21T16:37:07.287Z,5148.00
2019-05-21T16:39:00.246Z,5672.00
2019-05-21T16:40:01.469Z,4996.00
2019-05-21T16:41:53.661Z,4364.00
2019-05-21T16:42:53.700Z,4364.00
2019-05-21T16:44:46.606Z,3388.00
2019-05-21T16:45:46.603Z,3564.00
2019-05-21T16:47:45.886Z,3688.00
2019-05-21T16:48:39.531Z,3376.00
2019-05-21T16:50:32.523Z,3136.00
2019-05-21T16:51:32.461Z,3044.00
2019-05-21T16:53:25.885Z,3152.00
2019-05-21T16:54:25.903Z,2876.00
2019-05-21T16:56:18.828Z,2256.00
2019-05-21T16:57:18.829Z,2064.00
2019-05-21T16:59:11.741Z,2864.00
2019-05-21T17:00:11.757Z,2952.00
2019-05-21T17:02:04.677Z,4024.00
2019-05-21T17:03:04.685Z,4560.00
2019-05-21T17:04:57.605Z,4008.00
2019-05-21T17:05:57.614Z,3348.00
2019-05-21T17:07:50.541Z,2772.00
2019-05-21T17:08:50.553Z,2736.00
2019-05-21T17:10:43.969Z,3224.00
2019-05-21T17:11:57.586Z,2980.00
2019-05-21T17:13:36.902Z,2128.00
2019-05-21T17:14:36.907Z,2156.00
2019-05-21T17:16:29.828Z,3460.00
2019-05-21T17:17:29.837Z,3504.00
2019-05-21T17:19:22.776Z,2244.00
2019-05-21T17:20:22.765Z,2364.00
2019-05-21T17:22:15.684Z,2112.00
2019-05-21T17:23:15.696Z,1580.00
2019-05-21T17:25:08.620Z,2096.00
2019-05-21T17:26:08.626Z,2020.00
2019-05-21T17:28:01.540Z,1992.00
2019-05-21T17:29:01.554Z,1868.00
2019-05-21T17:30:54.487Z,1764.00
2019-05-21T17:31:54.519Z,1820.00
2019-05-21T17:33:47.417Z,1584.00
2019-05-21T17:34:47.430Z,1780.00
2019-05-21T17:36:40.347Z,1764.00
2019-05-21T17:37:40.355Z,1844.00
2019-05-21T17:39:33.278Z,2040.00
2019-05-21T17:40:33.283Z,1704.00
2019-05-21T17:42:26.199Z,1744.00
2019-05-21T17:43:26.218Z,2028.00
2019-05-21T17:45:19.622Z,1800.00
2019-05-21T17:46:19.632Z,1728.00
2019-05-21T17:48:12.564Z,1512.00
2019-05-21T17:49:12.558Z,1460.00